| time (UTC) | temp F | wind direction | speed knots | gust knots | rain 1hr in | rain 24hr in | rain mn in | humidity % | barometer mb |
| 20260509111501 | 72 | 44 | 3.5 | 9.6 | 0.00 | 0.00 | 0.00 | 42 | 1015.1 |
| 20260509110100 | 71 | 51 | 4.3 | 7.8 | 0.00 | 0.00 | 0.00 | 43 | 1015.3 |
| 20260509104555 | 69 | 56 | 3.5 | 7.8 | 0.00 | 0.00 | 0.00 | 44 | 1015.5 |
| 20260509103054 | 67 | 92 | 3.5 | 8.7 | 0.00 | 0.00 | 0.00 | 45 | 1015.7 |
| 20260509101552 | 68 | 165 | 3.5 | 8.7 | 0.00 | 0.00 | 0.00 | 45 | 1015.7 |
| 20260509100048 | 67 | 150 | 1.7 | 6.1 | 0.00 | 0.00 | 0.00 | 46 | 1015.7 |
| 20260509094544 | 66 | 113 | 1.7 | 6.1 | 0.00 | 0.00 | 0.00 | 48 | 1015.7 |
| 20260509093041 | 66 | 103 | 4.3 | 8.7 | 0.00 | 0.00 | 0.00 | 50 | 1015.8 |
| 20260509091537 | 66 | 108 | 2.6 | 7.8 | 0.00 | 0.00 | 0.00 | 54 | 1015.8 |
| 20260509090035 | 65 | 108 | 4.3 | 7.8 | 0.00 | 0.00 | 0.00 | 51 | 1016.0 |
| 20260509084536 | 64 | 107 | 2.6 | 8.7 | 0.00 | 0.00 | 0.00 | 55 | 1016.0 |
| 20260509083038 | 64 | 75 | 1.7 | 7.8 | 0.00 | 0.00 | 0.00 | 61 | 1016.1 |
| 20260509081522 | 62 | 63 | 1.7 | 7.0 | 0.00 | 0.00 | 0.00 | 63 | 1016.1 |
| 20260509080026 | 62 | 51 | 2.6 | 4.3 | 0.00 | 0.00 | 0.00 | 64 | 1016.2 |
| 20260509074514 | 61 | 160 | 1.7 | 5.2 | 0.00 | 0.00 | 0.00 | 68 | 1016.2 |
| 20260509073011 | 59 | 165 | 0.9 | 4.3 | 0.00 | 0.00 | 0.00 | 71 | 1016.1 |
| 20260509071506 | 57 | 190 | 0.9 | 5.2 | 0.00 | 0.00 | 0.00 | 73 | 1016.2 |
| 20260509070002 | 56 | 210 | 0.9 | 3.5 | 0.00 | 0.00 | 0.00 | 75 | 1016.2 |
| 20260509064558 | 55 | 217 | 1.7 | 4.3 | 0.00 | 0.00 | 0.00 | 75 | 1016.2 |
| 20260509063103 | 54 | 220 | 0.9 | 2.6 | 0.00 | 0.00 | 0.00 | 77 | 1016.2 |
| 20260509061549 | 52 | 220 | 1.7 | 3.5 | 0.00 | 0.00 | 0.00 | 81 | 1016.2 |
| 20260509060050 | 50 | 221 | 0.9 | 2.6 | 0.00 | 0.00 | 0.00 | 82 | 1016.3 |
| 20260509054541 | 49 | 221 | 0.9 | 2.6 | 0.00 | 0.00 | 0.00 | 85 | 1016.2 |
| 20260509053055 | 47 | 221 | 0.0 | 1.7 | 0.00 | 0.00 | 0.00 | 89 | 1016.2 |
| 20260509051531 | 45 | 221 | 0.9 | 3.5 | 0.00 | 0.00 | 0.00 | 91 | 1016.1 |
| 20260509050029 | 44 | 221 | 0.9 | 1.7 | 0.00 | 0.00 | 0.00 | 91 | 1016.0 |
| 20260509044522 | 43 | 221 | 0.9 | 1.7 | 0.00 | 0.00 | 0.00 | 91 | 1015.9 |
| 20260509043017 | 43 | 221 | 0.9 | 2.6 | 0.00 | 0.00 | 0.00 | 90 | 1015.8 |
| 20260509041517 | 43 | 221 | 0.0 | 2.6 | 0.00 | 0.00 | 0.00 | 90 | 1015.7 |
| 20260509040010 | 43 | 221 | 0.9 | 1.7 | 0.00 | 0.00 | 0.00 | 90 | 1015.7 |
| 20260509034509 | 43 | 221 | 0.9 | 1.7 | 0.00 | 0.00 | 0.00 | 90 | 1015.7 |
| 20260509033008 | 43 | 221 | 0.0 | 1.7 | 0.00 | 0.00 | 0.00 | 89 | 1015.8 |
| 20260509031506 | 43 | 221 | 0.0 | 1.7 | 0.00 | 0.00 | 0.00 | 88 | 1015.8 |
| 20260509030005 | 43 | 221 | 0.9 | 1.7 | 0.00 | 0.00 | 0.00 | 86 | 1015.9 |
| 20260509024503 | 43 | 221 | 0.0 | 0.0 | 0.00 | 0.00 | 0.00 | 86 | 1016.0 |
| 20260509023001 | 44 | 221 | 0.0 | 0.0 | 0.00 | 0.00 | 0.00 | 85 | 1016.0 |
| 20260509021600 | 44 | 221 | 0.0 | 0.0 | 0.00 | 0.00 | 0.00 | 84 | 1016.0 |
| 20260509020058 | 44 | 221 | 0.0 | 0.0 | 0.00 | 0.00 | 0.00 | 84 | 1016.0 |
| 20260509014601 | 45 | 221 | 0.0 | 0.0 | 0.00 | 0.00 | 0.00 | 83 | 1016.0 |
| 20260509013100 | 45 | 221 | 0.9 | 1.7 | 0.00 | 0.00 | 0.00 | 82 | 1016.1 |
| 20260509011552 | 45 | 221 | 0.9 | 1.7 | 0.00 | 0.00 | 0.00 | 83 | 1016.1 |
| 20260509010055 | 46 | 221 | 0.9 | 2.6 | 0.00 | 0.00 | 0.00 | 83 | 1016.1 |
| 20260509004549 | 46 | 221 | 0.0 | 2.6 | 0.00 | 0.00 | 0.00 | 84 | 1016.2 |
| 20260509003050 | 46 | 221 | 0.0 | 1.7 | 0.00 | 0.00 | 0.00 | 83 | 1016.1 |
| 20260509001546 | 47 | 221 | 0.0 | 1.7 | 0.00 | 0.00 | 0.00 | 83 | 1016.1 |
| 20260509000044 | 47 | 221 | 1.7 | 3.5 | 0.00 | 0.00 | 0.00 | 82 | 1016.1 |
| 20260508234547 | 47 | 246 | 2.6 | 6.1 | 0.00 | 0.00 | 0.00 | 83 | 1016.1 |
| 20260508233043 | 47 | 55 | 1.7 | 3.5 | 0.00 | 0.00 | 0.00 | 83 | 1016.1 |
| 20260508231538 | 47 | 56 | 0.9 | 2.6 | 0.00 | 0.00 | 0.00 | 82 | 1016.1 |
| 20260508230047 | 48 | 56 | 0.0 | 1.7 | 0.00 | 0.00 | 0.00 | 78 | 1016.1 |
| 20260508224538 | 49 | 56 | 0.9 | 1.7 | 0.00 | 0.00 | 0.00 | 79 | 1016.1 |
| 20260508223036 | 49 | 56 | 0.0 | 1.7 | 0.00 | 0.00 | 0.00 | 77 | 1016.1 |
| 20260508221540 | 50 | 56 | 0.0 | 0.0 | 0.00 | 0.00 | 0.00 | 76 | 1016.0 |
| 20260508220029 | 50 | 56 | 0.0 | 1.7 | 0.00 | 0.00 | 0.00 | 76 | 1015.9 |
| 20260508214525 | 51 | 56 | 0.9 | 2.6 | 0.00 | 0.00 | 0.00 | 74 | 1015.9 |
| 20260508213026 | 51 | 56 | 0.9 | 3.5 | 0.00 | 0.00 | 0.00 | 73 | 1015.9 |
| 20260508211522 | 52 | 65 | 0.9 | 2.6 | 0.00 | 0.00 | 0.00 | 71 | 1015.8 |
| 20260508210021 | 52 | 65 | 0.9 | 2.6 | 0.00 | 0.00 | 0.00 | 70 | 1015.7 |
| 20260508204522 | 53 | 65 | 0.9 | 1.7 | 0.00 | 0.00 | 0.00 | 68 | 1015.7 |
| 20260508203021 | 53 | 65 | 0.9 | 2.6 | 0.00 | 0.00 | 0.00 | 67 | 1015.8 |
| 20260508201519 | 54 | 65 | 0.9 | 2.6 | 0.00 | 0.00 | 0.00 | 65 | 1015.7 |
| 20260508200021 | 55 | 65 | 0.0 | 1.7 | 0.00 | 0.00 | 0.00 | 63 | 1015.6 |
| 20260508194518 | 56 | 65 | 0.9 | 2.6 | 0.00 | 0.00 | 0.00 | 62 | 1015.5 |
| 20260508193017 | 56 | 65 | 0.9 | 1.7 | 0.00 | 0.00 | 0.00 | 60 | 1015.4 |
| 20260508191519 | 57 | 65 | 0.9 | 2.6 | 0.00 | 0.00 | 0.00 | 59 | 1015.1 |
| 20260508190016 | 58 | 65 | 0.9 | 1.7 | 0.00 | 0.00 | 0.00 | 59 | 1014.9 |
| 20260508184516 | 59 | 65 | 0.9 | 2.6 | 0.00 | 0.00 | 0.00 | 59 | 1014.7 |
| 20260508183015 | 60 | 65 | 0.9 | 1.7 | 0.00 | 0.00 | 0.00 | 57 | 1014.7 |
| 20260508181517 | 60 | 65 | 0.9 | 2.6 | 0.00 | 0.00 | 0.00 | 56 | 1014.5 |
| 20260508180013 | 61 | 65 | 0.0 | 1.7 | 0.00 | 0.00 | 0.00 | 53 | 1014.5 |
| 20260508174513 | 61 | 65 | 0.0 | 3.5 | 0.00 | 0.00 | 0.00 | 52 | 1014.4 |
| 20260508173014 | 61 | 65 | 0.9 | 3.5 | 0.00 | 0.00 | 0.00 | 49 | 1014.3 |
| 20260508171511 | 62 | 67 | 1.7 | 5.2 | 0.00 | 0.00 | 0.00 | 49 | 1014.3 |
| 20260508170012 | 62 | 39 | 1.7 | 4.3 | 0.00 | 0.00 | 0.00 | 48 | 1014.2 |
| 20260508164611 | 63 | 39 | 1.7 | 5.2 | 0.00 | 0.00 | 0.00 | 47 | 1014.2 |
| 20260508163010 | 64 | 43 | 1.7 | 5.2 | 0.00 | 0.00 | 0.00 | 49 | 1014.1 |
| 20260508161513 | 64 | 18 | 1.7 | 4.3 | 0.00 | 0.00 | 0.00 | 48 | 1014.2 |
| 20260508160009 | 64 | 55 | 0.0 | 3.5 | 0.00 | 0.00 | 0.00 | 49 | 1014.3 |
| 20260508154508 | 64 | 54 | 2.6 | 5.2 | 0.00 | 0.00 | 0.00 | 45 | 1014.3 |
| 20260508153007 | 64 | 86 | 0.0 | 1.7 | 0.00 | 0.00 | 0.00 | 46 | 1014.3 |
| 20260508151506 | 63 | 86 | 0.9 | 6.1 | 0.00 | 0.00 | 0.00 | 45 | 1014.5 |
| 20260508150006 | 65 | 5 | 0.9 | 5.2 | 0.00 | 0.00 | 0.00 | 43 | 1014.5 |
| 20260508144506 | 64 | 102 | 2.6 | 5.2 | 0.00 | 0.00 | 0.00 | 43 | 1014.6 |
| 20260508143005 | 64 | 59 | 0.9 | 10.4 | 0.00 | 0.00 | 0.00 | 42 | 1014.6 |
| 20260508141504 | 65 | 24 | 3.5 | 7.0 | 0.00 | 0.00 | 0.00 | 42 | 1014.7 |
| 20260508140002 | 65 | 107 | 1.7 | 7.8 | 0.00 | 0.00 | 0.00 | 43 | 1014.7 |
| 20260508134501 | 64 | 97 | 2.6 | 7.8 | 0.00 | 0.00 | 0.00 | 44 | 1014.8 |
| 20260508133112 | 64 | 101 | 4.3 | 7.0 | 0.00 | 0.00 | 0.00 | 44 | 1014.8 |
| 20260508131602 | 64 | 118 | 2.6 | 7.8 | 0.00 | 0.00 | 0.00 | 44 | 1015.0 |
| 20260508130111 | 63 | 107 | 2.6 | 7.0 | 0.00 | 0.00 | 0.00 | 45 | 1015.1 |
| 20260508124558 | 63 | 169 | 1.7 | 5.2 | 0.00 | 0.00 | 0.00 | 46 | 1015.1 |
| 20260508123108 | 62 | 189 | 4.3 | 8.7 | 0.00 | 0.00 | 0.00 | 49 | 1015.2 |
| 20260508121606 | 62 | 58 | 2.6 | 6.1 | 0.00 | 0.00 | 0.00 | 51 | 1015.2 |
| 20260508120058 | 62 | 117 | 2.6 | 8.7 | 0.00 | 0.00 | 0.00 | 50 | 1015.1 |
| 20260508114556 | 64 | 123 | 3.5 | 7.8 | 0.00 | 0.00 | 0.00 | 45 | 1015.1 |